sensor_id;sensor_type;location;lat;lon;timestamp;P1;durP1;ratioP1;P2;durP2;ratioP2
8219;SDS011;4151;51.110;7.020;2022-08-21T00:01:57;16.50;;;8.70;;
8219;SDS011;4151;51.110;7.020;2022-08-21T00:04:23;14.10;;;9.53;;
8219;SDS011;4151;51.110;7.020;2022-08-21T00:06:52;11.93;;;8.60;;
8219;SDS011;4151;51.110;7.020;2022-08-21T00:09:18;15.00;;;9.20;;
8219;SDS011;4151;51.110;7.020;2022-08-21T00:11:44;15.83;;;8.93;;
8219;SDS011;4151;51.110;7.020;2022-08-21T00:14:10;15.93;;;9.47;;
8219;SDS011;4151;51.110;7.020;2022-08-21T00:16:37;16.37;;;9.20;;
8219;SDS011;4151;51.110;7.020;2022-08-21T00:19:03;16.20;;;9.67;;
8219;SDS011;4151;51.110;7.020;2022-08-21T00:21:31;13.53;;;8.90;;
8219;SDS011;4151;51.110;7.020;2022-08-21T00:23:57;11.87;;;8.10;;
8219;SDS011;4151;51.110;7.020;2022-08-21T00:26:22;17.30;;;9.73;;
8219;SDS011;4151;51.110;7.020;2022-08-21T00:28:48;15.97;;;9.23;;
8219;SDS011;4151;51.110;7.020;2022-08-21T00:31:14;17.83;;;9.67;;
8219;SDS011;4151;51.110;7.020;2022-08-21T00:33:40;16.03;;;10.10;;
8219;SDS011;4151;51.110;7.020;2022-08-21T00:36:06;14.17;;;9.80;;
8219;SDS011;4151;51.110;7.020;2022-08-21T00:38:32;16.97;;;9.33;;
8219;SDS011;4151;51.110;7.020;2022-08-21T00:40:59;23.10;;;10.23;;
8219;SDS011;4151;51.110;7.020;2022-08-21T00:43:28;19.30;;;9.37;;
8219;SDS011;4151;51.110;7.020;2022-08-21T00:45:55;18.90;;;10.17;;
8219;SDS011;4151;51.110;7.020;2022-08-21T00:48:22;16.40;;;9.43;;
8219;SDS011;4151;51.110;7.020;2022-08-21T00:50:50;22.90;;;10.40;;
8219;SDS011;4151;51.110;7.020;2022-08-21T00:53:22;15.23;;;9.63;;
8219;SDS011;4151;51.110;7.020;2022-08-21T00:55:48;15.50;;;9.73;;
8219;SDS011;4151;51.110;7.020;2022-08-21T00:58:15;18.57;;;9.60;;
8219;SDS011;4151;51.110;7.020;2022-08-21T01:00:43;17.10;;;8.67;;
8219;SDS011;4151;51.110;7.020;2022-08-21T01:03:12;16.17;;;8.97;;
8219;SDS011;4151;51.110;7.020;2022-08-21T01:05:39;23.70;;;10.50;;
8219;SDS011;4151;51.110;7.020;2022-08-21T01:08:06;18.17;;;9.87;;
8219;SDS011;4151;51.110;7.020;2022-08-21T01:10:33;16.30;;;9.73;;
8219;SDS011;4151;51.110;7.020;2022-08-21T01:13:00;17.40;;;8.70;;
8219;SDS011;4151;51.110;7.020;2022-08-21T01:15:31;12.80;;;8.30;;
8219;SDS011;4151;51.110;7.020;2022-08-21T01:17:59;12.50;;;8.80;;
8219;SDS011;4151;51.110;7.020;2022-08-21T01:20:27;17.37;;;9.37;;
8219;SDS011;4151;51.110;7.020;2022-08-21T01:22:53;15.07;;;9.83;;
8219;SDS011;4151;51.110;7.020;2022-08-21T01:25:18;18.13;;;9.60;;
8219;SDS011;4151;51.110;7.020;2022-08-21T01:27:44;13.47;;;8.40;;
8219;SDS011;4151;51.110;7.020;2022-08-21T01:30:12;24.87;;;9.97;;
8219;SDS011;4151;51.110;7.020;2022-08-21T01:32:42;18.03;;;9.67;;
8219;SDS011;4151;51.110;7.020;2022-08-21T01:35:08;14.93;;;9.23;;
8219;SDS011;4151;51.110;7.020;2022-08-21T01:37:34;11.83;;;8.70;;
8219;SDS011;4151;51.110;7.020;2022-08-21T01:40:00;20.53;;;9.53;;
8219;SDS011;4151;51.110;7.020;2022-08-21T01:42:26;15.97;;;8.30;;
8219;SDS011;4151;51.110;7.020;2022-08-21T01:44:51;26.90;;;14.70;;
8219;SDS011;4151;51.110;7.020;2022-08-21T01:47:17;28.97;;;16.40;;
8219;SDS011;4151;51.110;7.020;2022-08-21T01:49:44;22.33;;;10.93;;
8219;SDS011;4151;51.110;7.020;2022-08-21T01:52:10;20.30;;;8.83;;
8219;SDS011;4151;51.110;7.020;2022-08-21T01:54:36;16.70;;;8.47;;
8219;SDS011;4151;51.110;7.020;2022-08-21T01:57:03;14.40;;;9.50;;
8219;SDS011;4151;51.110;7.020;2022-08-21T01:59:29;14.73;;;8.10;;
8219;SDS011;4151;51.110;7.020;2022-08-21T02:01:55;18.00;;;8.93;;
8219;SDS011;4151;51.110;7.020;2022-08-21T02:04:22;15.97;;;8.87;;
8219;SDS011;4151;51.110;7.020;2022-08-21T02:06:48;19.30;;;9.20;;
8219;SDS011;4151;51.110;7.020;2022-08-21T02:09:14;11.03;;;7.73;;
8219;SDS011;4151;51.110;7.020;2022-08-21T02:11:41;16.40;;;8.13;;
8219;SDS011;4151;51.110;7.020;2022-08-21T02:14:07;11.13;;;7.87;;
8219;SDS011;4151;51.110;7.020;2022-08-21T02:16:34;15.23;;;8.60;;
8219;SDS011;4151;51.110;7.020;2022-08-21T02:19:00;16.00;;;8.10;;
8219;SDS011;4151;51.110;7.020;2022-08-21T02:21:26;21.00;;;9.23;;
8219;SDS011;4151;51.110;7.020;2022-08-21T02:23:52;22.13;;;9.03;;
8219;SDS011;4151;51.110;7.020;2022-08-21T02:26:17;15.80;;;8.47;;
8219;SDS011;4151;51.110;7.020;2022-08-21T02:28:43;18.13;;;8.70;;
8219;SDS011;4151;51.110;7.020;2022-08-21T02:31:09;17.80;;;8.87;;
8219;SDS011;4151;51.110;7.020;2022-08-21T02:33:35;13.17;;;8.13;;
8219;SDS011;4151;51.110;7.020;2022-08-21T02:36:01;19.60;;;9.00;;
8219;SDS011;4151;51.110;7.020;2022-08-21T02:38:29;12.30;;;8.40;;
8219;SDS011;4151;51.110;7.020;2022-08-21T02:40:58;15.70;;;8.50;;
8219;SDS011;4151;51.110;7.020;2022-08-21T02:43:25;19.80;;;9.20;;
8219;SDS011;4151;51.110;7.020;2022-08-21T02:45:51;16.63;;;8.77;;
8219;SDS011;4151;51.110;7.020;2022-08-21T02:48:20;14.00;;;8.00;;
8219;SDS011;4151;51.110;7.020;2022-08-21T02:50:50;13.60;;;8.60;;
8219;SDS011;4151;51.110;7.020;2022-08-21T02:53:19;18.33;;;9.40;;
8219;SDS011;4151;51.110;7.020;2022-08-21T02:55:46;13.80;;;8.53;;
8219;SDS011;4151;51.110;7.020;2022-08-21T02:58:14;12.60;;;8.53;;
8219;SDS011;4151;51.110;7.020;2022-08-21T03:00:41;18.07;;;8.70;;
8219;SDS011;4151;51.110;7.020;2022-08-21T03:03:08;16.00;;;8.90;;
8219;SDS011;4151;51.110;7.020;2022-08-21T03:05:34;15.03;;;8.73;;
8219;SDS011;4151;51.110;7.020;2022-08-21T03:08:03;15.80;;;8.20;;
8219;SDS011;4151;51.110;7.020;2022-08-21T03:10:34;17.03;;;8.50;;
8219;SDS011;4151;51.110;7.020;2022-08-21T03:13:00;15.07;;;9.07;;
8219;SDS011;4151;51.110;7.020;2022-08-21T03:15:28;17.87;;;8.40;;
8219;SDS011;4151;51.110;7.020;2022-08-21T03:17:54;26.40;;;8.77;;
8219;SDS011;4151;51.110;7.020;2022-08-21T03:20:22;14.23;;;8.53;;
8219;SDS011;4151;51.110;7.020;2022-08-21T03:22:49;15.97;;;9.50;;
8219;SDS011;4151;51.110;7.020;2022-08-21T03:25:16;16.60;;;9.20;;
8219;SDS011;4151;51.110;7.020;2022-08-21T03:27:42;18.40;;;8.70;;
8219;SDS011;4151;51.110;7.020;2022-08-21T03:30:09;12.07;;;8.40;;
8219;SDS011;4151;51.110;7.020;2022-08-21T03:32:35;21.03;;;7.90;;
8219;SDS011;4151;51.110;7.020;2022-08-21T03:35:01;17.47;;;10.13;;
8219;SDS011;4151;51.110;7.020;2022-08-21T03:37:28;18.53;;;8.10;;
8219;SDS011;4151;51.110;7.020;2022-08-21T03:39:53;15.63;;;9.80;;
8219;SDS011;4151;51.110;7.020;2022-08-21T03:42:19;38.67;;;17.20;;
8219;SDS011;4151;51.110;7.020;2022-08-21T03:44:45;12.73;;;8.53;;
8219;SDS011;4151;51.110;7.020;2022-08-21T03:47:10;16.50;;;8.87;;
8219;SDS011;4151;51.110;7.020;2022-08-21T03:49:36;12.43;;;7.50;;
8219;SDS011;4151;51.110;7.020;2022-08-21T03:52:02;12.87;;;8.80;;
8219;SDS011;4151;51.110;7.020;2022-08-21T03:54:28;15.43;;;7.90;;
8219;SDS011;4151;51.110;7.020;2022-08-21T03:56:54;16.43;;;8.60;;
8219;SDS011;4151;51.110;7.020;2022-08-21T03:59:21;19.43;;;9.67;;
8219;SDS011;4151;51.110;7.020;2022-08-21T04:01:54;14.70;;;9.10;;
8219;SDS011;4151;51.110;7.020;2022-08-21T04:04:21;14.27;;;8.17;;
8219;SDS011;4151;51.110;7.020;2022-08-21T04:06:47;16.40;;;9.40;;
8219;SDS011;4151;51.110;7.020;2022-08-21T04:09:14;11.90;;;7.70;;
8219;SDS011;4151;51.110;7.020;2022-08-21T04:11:40;20.33;;;8.83;;
8219;SDS011;4151;51.110;7.020;2022-08-21T04:14:06;17.23;;;9.57;;
8219;SDS011;4151;51.110;7.020;2022-08-21T04:16:32;16.90;;;8.10;;
8219;SDS011;4151;51.110;7.020;2022-08-21T04:18:57;13.30;;;8.70;;
8219;SDS011;4151;51.110;7.020;2022-08-21T04:21:23;17.23;;;9.13;;
8219;SDS011;4151;51.110;7.020;2022-08-21T04:23:49;17.50;;;8.03;;
8219;SDS011;4151;51.110;7.020;2022-08-21T04:26:14;21.47;;;9.60;;
8219;SDS011;4151;51.110;7.020;2022-08-21T04:28:40;16.57;;;8.40;;
8219;SDS011;4151;51.110;7.020;2022-08-21T04:31:06;14.77;;;8.50;;
8219;SDS011;4151;51.110;7.020;2022-08-21T04:33:33;16.80;;;8.60;;
8219;SDS011;4151;51.110;7.020;2022-08-21T04:35:59;12.40;;;9.00;;
8219;SDS011;4151;51.110;7.020;2022-08-21T04:38:25;18.33;;;7.90;;
8219;SDS011;4151;51.110;7.020;2022-08-21T04:40:51;18.17;;;9.37;;
8219;SDS011;4151;51.110;7.020;2022-08-21T04:43:17;16.53;;;8.70;;
8219;SDS011;4151;51.110;7.020;2022-08-21T04:45:46;20.33;;;8.70;;
8219;SDS011;4151;51.110;7.020;2022-08-21T04:48:14;14.93;;;8.47;;
8219;SDS011;4151;51.110;7.020;2022-08-21T04:50:50;14.90;;;8.67;;
8219;SDS011;4151;51.110;7.020;2022-08-21T04:53:24;14.60;;;9.60;;
8219;SDS011;4151;51.110;7.020;2022-08-21T04:55:56;13.20;;;7.73;;
8219;SDS011;4151;51.110;7.020;2022-08-21T04:58:26;19.93;;;8.97;;
8219;SDS011;4151;51.110;7.020;2022-08-21T05:00:54;21.40;;;9.13;;
8219;SDS011;4151;51.110;7.020;2022-08-21T05:03:21;12.73;;;8.70;;
8219;SDS011;4151;51.110;7.020;2022-08-21T05:05:47;17.00;;;9.20;;
8219;SDS011;4151;51.110;7.020;2022-08-21T05:08:14;15.50;;;9.23;;
8219;SDS011;4151;51.110;7.020;2022-08-21T05:10:44;15.47;;;9.73;;
8219;SDS011;4151;51.110;7.020;2022-08-21T05:13:11;13.83;;;8.30;;
8219;SDS011;4151;51.110;7.020;2022-08-21T05:15:38;21.10;;;8.60;;
8219;SDS011;4151;51.110;7.020;2022-08-21T05:18:04;19.70;;;8.80;;
8219;SDS011;4151;51.110;7.020;2022-08-21T05:20:30;15.27;;;9.30;;
8219;SDS011;4151;51.110;7.020;2022-08-21T05:22:56;18.50;;;10.50;;
8219;SDS011;4151;51.110;7.020;2022-08-21T05:25:22;19.40;;;9.60;;
8219;SDS011;4151;51.110;7.020;2022-08-21T05:27:48;13.43;;;9.23;;
8219;SDS011;4151;51.110;7.020;2022-08-21T05:30:13;14.30;;;8.90;;
8219;SDS011;4151;51.110;7.020;2022-08-21T05:32:39;15.73;;;9.00;;
8219;SDS011;4151;51.110;7.020;2022-08-21T05:35:05;14.90;;;9.10;;
8219;SDS011;4151;51.110;7.020;2022-08-21T05:37:32;20.00;;;9.53;;
8219;SDS011;4151;51.110;7.020;2022-08-21T05:39:58;18.37;;;10.60;;
8219;SDS011;4151;51.110;7.020;2022-08-21T05:42:25;26.97;;;11.87;;
8219;SDS011;4151;51.110;7.020;2022-08-21T05:44:51;23.13;;;11.43;;
8219;SDS011;4151;51.110;7.020;2022-08-21T05:47:16;20.40;;;11.03;;
8219;SDS011;4151;51.110;7.020;2022-08-21T05:49:42;23.90;;;11.57;;
8219;SDS011;4151;51.110;7.020;2022-08-21T05:52:07;22.23;;;13.10;;
8219;SDS011;4151;51.110;7.020;2022-08-21T05:54:33;23.90;;;11.87;;
8219;SDS011;4151;51.110;7.020;2022-08-21T05:57:01;18.23;;;12.10;;
8219;SDS011;4151;51.110;7.020;2022-08-21T05:59:27;19.00;;;10.03;;
8219;SDS011;4151;51.110;7.020;2022-08-21T06:01:53;19.90;;;10.10;;
8219;SDS011;4151;51.110;7.020;2022-08-21T06:04:18;12.77;;;8.50;;
8219;SDS011;4151;51.110;7.020;2022-08-21T06:06:44;19.20;;;9.73;;
8219;SDS011;4151;51.110;7.020;2022-08-21T06:09:11;18.20;;;9.00;;
8219;SDS011;4151;51.110;7.020;2022-08-21T06:11:36;17.90;;;10.00;;
8219;SDS011;4151;51.110;7.020;2022-08-21T06:14:02;21.10;;;9.17;;
8219;SDS011;4151;51.110;7.020;2022-08-21T06:16:28;19.20;;;9.30;;
8219;SDS011;4151;51.110;7.020;2022-08-21T06:18:54;24.43;;;10.30;;
8219;SDS011;4151;51.110;7.020;2022-08-21T06:21:19;19.77;;;10.63;;
8219;SDS011;4151;51.110;7.020;2022-08-21T06:23:45;18.63;;;9.83;;
8219;SDS011;4151;51.110;7.020;2022-08-21T06:26:11;17.20;;;10.13;;
8219;SDS011;4151;51.110;7.020;2022-08-21T06:28:38;24.00;;;9.33;;
8219;SDS011;4151;51.110;7.020;2022-08-21T06:31:15;16.47;;;10.17;;
8219;SDS011;4151;51.110;7.020;2022-08-21T06:33:43;17.10;;;9.60;;
8219;SDS011;4151;51.110;7.020;2022-08-21T06:36:08;18.83;;;10.20;;
8219;SDS011;4151;51.110;7.020;2022-08-21T06:38:34;16.83;;;9.63;;
8219;SDS011;4151;51.110;7.020;2022-08-21T06:41:00;20.47;;;11.20;;
8219;SDS011;4151;51.110;7.020;2022-08-21T06:43:26;17.67;;;10.03;;
8219;SDS011;4151;51.110;7.020;2022-08-21T06:45:52;17.60;;;10.70;;
8219;SDS011;4151;51.110;7.020;2022-08-21T06:48:17;16.97;;;10.40;;
8219;SDS011;4151;51.110;7.020;2022-08-21T06:50:43;19.53;;;10.47;;
8219;SDS011;4151;51.110;7.020;2022-08-21T06:53:10;19.20;;;10.87;;
8219;SDS011;4151;51.110;7.020;2022-08-21T06:55:37;17.50;;;9.37;;
8219;SDS011;4151;51.110;7.020;2022-08-21T06:58:03;17.60;;;9.80;;
8219;SDS011;4151;51.110;7.020;2022-08-21T07:00:30;23.43;;;9.40;;
8219;SDS011;4151;51.110;7.020;2022-08-21T07:02:56;26.10;;;11.43;;
8219;SDS011;4151;51.110;7.020;2022-08-21T07:05:25;19.00;;;9.80;;
8219;SDS011;4151;51.110;7.020;2022-08-21T07:07:52;16.60;;;10.07;;
8219;SDS011;4151;51.110;7.020;2022-08-21T07:10:17;19.30;;;9.20;;
8219;SDS011;4151;51.110;7.020;2022-08-21T07:12:43;20.47;;;11.00;;
8219;SDS011;4151;51.110;7.020;2022-08-21T07:15:10;15.43;;;9.50;;
8219;SDS011;4151;51.110;7.020;2022-08-21T07:17:35;16.43;;;9.23;;
8219;SDS011;4151;51.110;7.020;2022-08-21T07:20:01;16.63;;;9.63;;
8219;SDS011;4151;51.110;7.020;2022-08-21T07:22:28;18.67;;;10.50;;
8219;SDS011;4151;51.110;7.020;2022-08-21T07:24:54;14.37;;;9.00;;
8219;SDS011;4151;51.110;7.020;2022-08-21T07:27:20;17.10;;;8.30;;
8219;SDS011;4151;51.110;7.020;2022-08-21T07:29:46;20.00;;;9.27;;
8219;SDS011;4151;51.110;7.020;2022-08-21T07:32:12;16.77;;;8.20;;
8219;SDS011;4151;51.110;7.020;2022-08-21T07:34:39;17.13;;;8.77;;
8219;SDS011;4151;51.110;7.020;2022-08-21T07:37:05;17.27;;;7.37;;
8219;SDS011;4151;51.110;7.020;2022-08-21T07:39:31;16.93;;;9.60;;
8219;SDS011;4151;51.110;7.020;2022-08-21T07:41:57;19.30;;;8.97;;
8219;SDS011;4151;51.110;7.020;2022-08-21T07:44:22;19.50;;;7.83;;
8219;SDS011;4151;51.110;7.020;2022-08-21T07:46:48;17.13;;;8.37;;
8219;SDS011;4151;51.110;7.020;2022-08-21T07:49:13;20.23;;;8.70;;
8219;SDS011;4151;51.110;7.020;2022-08-21T07:51:39;15.23;;;8.33;;
8219;SDS011;4151;51.110;7.020;2022-08-21T07:54:04;21.20;;;8.57;;
8219;SDS011;4151;51.110;7.020;2022-08-21T07:56:30;13.70;;;7.80;;
8219;SDS011;4151;51.110;7.020;2022-08-21T07:58:57;14.80;;;7.23;;
8219;SDS011;4151;51.110;7.020;2022-08-21T08:01:22;17.77;;;7.93;;
8219;SDS011;4151;51.110;7.020;2022-08-21T08:03:48;13.63;;;6.93;;
8219;SDS011;4151;51.110;7.020;2022-08-21T08:06:14;19.83;;;7.93;;
8219;SDS011;4151;51.110;7.020;2022-08-21T08:08:41;15.73;;;7.87;;
8219;SDS011;4151;51.110;7.020;2022-08-21T08:11:08;19.77;;;8.80;;
8219;SDS011;4151;51.110;7.020;2022-08-21T08:13:43;11.77;;;6.60;;
8219;SDS011;4151;51.110;7.020;2022-08-21T08:16:11;16.57;;;7.40;;
8219;SDS011;4151;51.110;7.020;2022-08-21T08:18:37;10.97;;;6.50;;
8219;SDS011;4151;51.110;7.020;2022-08-21T08:21:03;17.53;;;6.93;;
8219;SDS011;4151;51.110;7.020;2022-08-21T08:23:30;16.00;;;7.43;;
8219;SDS011;4151;51.110;7.020;2022-08-21T08:25:56;12.30;;;5.73;;
8219;SDS011;4151;51.110;7.020;2022-08-21T08:28:22;11.63;;;5.93;;
8219;SDS011;4151;51.110;7.020;2022-08-21T08:30:48;11.33;;;4.93;;
8219;SDS011;4151;51.110;7.020;2022-08-21T08:33:14;8.60;;;4.50;;
8219;SDS011;4151;51.110;7.020;2022-08-21T08:35:45;9.43;;;5.23;;
8219;SDS011;4151;51.110;7.020;2022-08-21T08:38:12;12.90;;;5.00;;
8219;SDS011;4151;51.110;7.020;2022-08-21T08:41:01;8.23;;;3.70;;
8219;SDS011;4151;51.110;7.020;2022-08-21T08:43:28;7.17;;;3.40;;
8219;SDS011;4151;51.110;7.020;2022-08-21T08:45:55;7.60;;;3.33;;
8219;SDS011;4151;51.110;7.020;2022-08-21T08:48:31;8.37;;;3.63;;
8219;SDS011;4151;51.110;7.020;2022-08-21T08:51:04;10.23;;;3.00;;
8219;SDS011;4151;51.110;7.020;2022-08-21T08:53:43;11.63;;;2.80;;
8219;SDS011;4151;51.110;7.020;2022-08-21T08:56:15;12.57;;;3.87;;
8219;SDS011;4151;51.110;7.020;2022-08-21T08:58:46;8.77;;;3.83;;
8219;SDS011;4151;51.110;7.020;2022-08-21T09:01:15;16.73;;;3.47;;
8219;SDS011;4151;51.110;7.020;2022-08-21T09:03:43;8.10;;;2.80;;
8219;SDS011;4151;51.110;7.020;2022-08-21T09:06:20;5.97;;;2.57;;
8219;SDS011;4151;51.110;7.020;2022-08-21T09:11:35;8.07;;;2.40;;
8219;SDS011;4151;51.110;7.020;2022-08-21T09:24:54;7.60;;;2.20;;
8219;SDS011;4151;51.110;7.020;2022-08-21T09:27:32;9.60;;;2.60;;
8219;SDS011;4151;51.110;7.020;2022-08-21T09:29:58;6.20;;;1.70;;
8219;SDS011;4151;51.110;7.020;2022-08-21T09:32:29;11.87;;;2.90;;
8219;SDS011;4151;51.110;7.020;2022-08-21T09:34:57;7.80;;;2.20;;
8219;SDS011;4151;51.110;7.020;2022-08-21T09:37:30;6.63;;;2.40;;
8219;SDS011;4151;51.110;7.020;2022-08-21T09:39:59;8.80;;;2.43;;
8219;SDS011;4151;51.110;7.020;2022-08-21T09:42:31;16.90;;;2.60;;
8219;SDS011;4151;51.110;7.020;2022-08-21T09:47:40;9.27;;;2.30;;
8219;SDS011;4151;51.110;7.020;2022-08-21T09:50:19;13.50;;;2.17;;
8219;SDS011;4151;51.110;7.020;2022-08-21T09:52:53;10.40;;;2.60;;
8219;SDS011;4151;51.110;7.020;2022-08-21T09:55:38;15.83;;;3.40;;
8219;SDS011;4151;51.110;7.020;2022-08-21T09:58:35;10.10;;;2.33;;
8219;SDS011;4151;51.110;7.020;2022-08-21T10:01:04;8.63;;;2.33;;
8219;SDS011;4151;51.110;7.020;2022-08-21T10:03:30;13.07;;;2.43;;
8219;SDS011;4151;51.110;7.020;2022-08-21T10:06:00;9.83;;;2.70;;
8219;SDS011;4151;51.110;7.020;2022-08-21T10:08:34;11.23;;;2.53;;
8219;SDS011;4151;51.110;7.020;2022-08-21T10:11:08;6.50;;;2.10;;
8219;SDS011;4151;51.110;7.020;2022-08-21T10:13:47;8.07;;;1.90;;
8219;SDS011;4151;51.110;7.020;2022-08-21T10:16:48;6.67;;;1.90;;
8219;SDS011;4151;51.110;7.020;2022-08-21T10:24:57;15.27;;;2.50;;
8219;SDS011;4151;51.110;7.020;2022-08-21T10:30:16;11.13;;;2.20;;
8219;SDS011;4151;51.110;7.020;2022-08-21T10:35:28;4.77;;;1.80;;
8219;SDS011;4151;51.110;7.020;2022-08-21T10:40:37;6.00;;;2.20;;
8219;SDS011;4151;51.110;7.020;2022-08-21T10:46:29;5.87;;;2.10;;
8219;SDS011;4151;51.110;7.020;2022-08-21T10:49:36;5.17;;;1.90;;
8219;SDS011;4151;51.110;7.020;2022-08-21T10:52:09;8.00;;;1.70;;
8219;SDS011;4151;51.110;7.020;2022-08-21T10:54:46;5.37;;;2.03;;
8219;SDS011;4151;51.110;7.020;2022-08-21T10:57:25;5.80;;;2.13;;
8219;SDS011;4151;51.110;7.020;2022-08-21T11:00:08;5.97;;;2.40;;
8219;SDS011;4151;51.110;7.020;2022-08-21T11:02:38;5.13;;;1.67;;
8219;SDS011;4151;51.110;7.020;2022-08-21T11:05:20;6.93;;;1.90;;
8219;SDS011;4151;51.110;7.020;2022-08-21T11:07:49;6.20;;;1.40;;
8219;SDS011;4151;51.110;7.020;2022-08-21T11:10:42;5.50;;;2.10;;
8219;SDS011;4151;51.110;7.020;2022-08-21T11:18:27;5.20;;;1.97;;
8219;SDS011;4151;51.110;7.020;2022-08-21T11:23:46;5.43;;;1.60;;
8219;SDS011;4151;51.110;7.020;2022-08-21T11:26:24;9.00;;;2.07;;
8219;SDS011;4151;51.110;7.020;2022-08-21T11:29:04;5.77;;;2.10;;
8219;SDS011;4151;51.110;7.020;2022-08-21T11:46:00;6.97;;;2.17;;
8219;SDS011;4151;51.110;7.020;2022-08-21T11:51:41;7.50;;;2.20;;
8219;SDS011;4151;51.110;7.020;2022-08-21T11:54:35;6.00;;;1.83;;
8219;SDS011;4151;51.110;7.020;2022-08-21T11:57:16;6.00;;;1.90;;
8219;SDS011;4151;51.110;7.020;2022-08-21T12:02:33;4.93;;;1.60;;
8219;SDS011;4151;51.110;7.020;2022-08-21T12:05:25;7.10;;;2.20;;
8219;SDS011;4151;51.110;7.020;2022-08-21T12:08:30;7.67;;;1.80;;
8219;SDS011;4151;51.110;7.020;2022-08-21T12:10:59;4.67;;;1.80;;
8219;SDS011;4151;51.110;7.020;2022-08-21T12:14:11;6.37;;;1.80;;
8219;SDS011;4151;51.110;7.020;2022-08-21T12:16:41;4.20;;;1.50;;
8219;SDS011;4151;51.110;7.020;2022-08-21T12:19:13;8.77;;;2.00;;
8219;SDS011;4151;51.110;7.020;2022-08-21T12:21:53;4.50;;;1.73;;
8219;SDS011;4151;51.110;7.020;2022-08-21T12:24:30;4.90;;;1.67;;
8219;SDS011;4151;51.110;7.020;2022-08-21T12:29:55;5.43;;;1.70;;
8219;SDS011;4151;51.110;7.020;2022-08-21T12:34:58;3.87;;;1.43;;
8219;SDS011;4151;51.110;7.020;2022-08-21T12:37:45;7.80;;;1.43;;
8219;SDS011;4151;51.110;7.020;2022-08-21T12:40:21;2.37;;;1.30;;
8219;SDS011;4151;51.110;7.020;2022-08-21T12:42:51;6.13;;;1.63;;
8219;SDS011;4151;51.110;7.020;2022-08-21T12:45:20;4.73;;;1.67;;
8219;SDS011;4151;51.110;7.020;2022-08-21T12:47:56;5.00;;;1.97;;
8219;SDS011;4151;51.110;7.020;2022-08-21T12:50:41;7.40;;;2.17;;
8219;SDS011;4151;51.110;7.020;2022-08-21T12:53:12;5.90;;;1.80;;
8219;SDS011;4151;51.110;7.020;2022-08-21T12:55:48;3.50;;;1.40;;
8219;SDS011;4151;51.110;7.020;2022-08-21T12:58:21;3.47;;;1.30;;
8219;SDS011;4151;51.110;7.020;2022-08-21T13:01:13;5.60;;;1.77;;
8219;SDS011;4151;51.110;7.020;2022-08-21T13:03:46;7.30;;;1.80;;
8219;SDS011;4151;51.110;7.020;2022-08-21T13:06:16;4.97;;;1.73;;
8219;SDS011;4151;51.110;7.020;2022-08-21T13:08:45;4.70;;;1.80;;
8219;SDS011;4151;51.110;7.020;2022-08-21T13:11:14;6.50;;;2.00;;
8219;SDS011;4151;51.110;7.020;2022-08-21T13:13:42;4.00;;;1.73;;
8219;SDS011;4151;51.110;7.020;2022-08-21T13:16:08;8.70;;;2.10;;
8219;SDS011;4151;51.110;7.020;2022-08-21T13:18:35;5.50;;;1.60;;
8219;SDS011;4151;51.110;7.020;2022-08-21T13:21:16;5.67;;;1.50;;
8219;SDS011;4151;51.110;7.020;2022-08-21T13:23:41;2.07;;;1.20;;
8219;SDS011;4151;51.110;7.020;2022-08-21T13:28:40;2.40;;;1.17;;
8219;SDS011;4151;51.110;7.020;2022-08-21T13:31:07;6.03;;;1.97;;
8219;SDS011;4151;51.110;7.020;2022-08-21T13:33:38;6.27;;;1.90;;
8219;SDS011;4151;51.110;7.020;2022-08-21T13:38:51;2.90;;;1.60;;
8219;SDS011;4151;51.110;7.020;2022-08-21T13:41:20;3.00;;;1.37;;
8219;SDS011;4151;51.110;7.020;2022-08-21T13:43:50;4.63;;;1.50;;
8219;SDS011;4151;51.110;7.020;2022-08-21T13:46:24;5.70;;;1.70;;
8219;SDS011;4151;51.110;7.020;2022-08-21T13:48:53;4.60;;;1.87;;
8219;SDS011;4151;51.110;7.020;2022-08-21T13:51:20;4.40;;;1.73;;
8219;SDS011;4151;51.110;7.020;2022-08-21T13:53:47;7.63;;;1.67;;
8219;SDS011;4151;51.110;7.020;2022-08-21T13:56:40;5.23;;;2.00;;
8219;SDS011;4151;51.110;7.020;2022-08-21T13:59:08;4.23;;;1.63;;
8219;SDS011;4151;51.110;7.020;2022-08-21T14:01:38;3.23;;;1.40;;
8219;SDS011;4151;51.110;7.020;2022-08-21T14:04:33;2.20;;;1.07;;
8219;SDS011;4151;51.110;7.020;2022-08-21T14:07:02;3.97;;;1.60;;
8219;SDS011;4151;51.110;7.020;2022-08-21T14:09:44;7.30;;;1.70;;
8219;SDS011;4151;51.110;7.020;2022-08-21T14:14:49;4.37;;;1.27;;
8219;SDS011;4151;51.110;7.020;2022-08-21T14:17:25;1.87;;;1.03;;
8219;SDS011;4151;51.110;7.020;2022-08-21T14:19:53;3.17;;;1.20;;
8219;SDS011;4151;51.110;7.020;2022-08-21T14:27:49;4.57;;;1.40;;
8219;SDS011;4151;51.110;7.020;2022-08-21T14:30:38;2.60;;;1.53;;
8219;SDS011;4151;51.110;7.020;2022-08-21T14:33:03;2.67;;;1.13;;
8219;SDS011;4151;51.110;7.020;2022-08-21T14:35:33;1.63;;;1.20;;
8219;SDS011;4151;51.110;7.020;2022-08-21T14:37:59;2.60;;;1.10;;
8219;SDS011;4151;51.110;7.020;2022-08-21T14:40:25;3.30;;;1.27;;
8219;SDS011;4151;51.110;7.020;2022-08-21T14:42:51;4.73;;;1.37;;
8219;SDS011;4151;51.110;7.020;2022-08-21T14:45:18;4.40;;;1.20;;
8219;SDS011;4151;51.110;7.020;2022-08-21T14:47:47;4.93;;;1.40;;
8219;SDS011;4151;51.110;7.020;2022-08-21T14:50:13;1.90;;;1.17;;
8219;SDS011;4151;51.110;7.020;2022-08-21T14:52:39;4.50;;;1.70;;
8219;SDS011;4151;51.110;7.020;2022-08-21T14:55:06;2.63;;;1.20;;
8219;SDS011;4151;51.110;7.020;2022-08-21T14:57:35;1.50;;;1.10;;
8219;SDS011;4151;51.110;7.020;2022-08-21T15:00:03;3.63;;;1.90;;
8219;SDS011;4151;51.110;7.020;2022-08-21T15:02:29;6.97;;;1.00;;
8219;SDS011;4151;51.110;7.020;2022-08-21T15:04:55;1.55;;;0.90;;
8219;SDS011;4151;51.110;7.020;2022-08-21T15:07:21;1.40;;;1.10;;
8219;SDS011;4151;51.110;7.020;2022-08-21T15:09:46;1.95;;;0.90;;
8219;SDS011;4151;51.110;7.020;2022-08-21T15:12:12;3.47;;;1.13;;
8219;SDS011;4151;51.110;7.020;2022-08-21T15:14:39;1.00;;;0.90;;
8219;SDS011;4151;51.110;7.020;2022-08-21T15:17:07;8.50;;;1.25;;
8219;SDS011;4151;51.110;7.020;2022-08-21T15:19:35;1.75;;;1.00;;
8219;SDS011;4151;51.110;7.020;2022-08-21T15:22:01;1.40;;;1.00;;
8219;SDS011;4151;51.110;7.020;2022-08-21T15:24:27;2.65;;;0.90;;
8219;SDS011;4151;51.110;7.020;2022-08-21T15:26:54;1.80;;;1.10;;
8219;SDS011;4151;51.110;7.020;2022-08-21T15:29:21;2.95;;;1.00;;
8219;SDS011;4151;51.110;7.020;2022-08-21T15:31:54;1.73;;;1.00;;
8219;SDS011;4151;51.110;7.020;2022-08-21T15:34:22;3.10;;;2.50;;
8219;SDS011;4151;51.110;7.020;2022-08-21T15:36:49;1.70;;;0.98;;
8219;SDS011;4151;51.110;7.020;2022-08-21T15:39:15;1.27;;;0.90;;
8219;SDS011;4151;51.110;7.020;2022-08-21T15:41:41;1.67;;;1.07;;
8219;SDS011;4151;51.110;7.020;2022-08-21T15:44:08;2.40;;;1.33;;
8219;SDS011;4151;51.110;7.020;2022-08-21T15:46:36;1.60;;;1.20;;
8219;SDS011;4151;51.110;7.020;2022-08-21T15:49:02;2.90;;;1.37;;
8219;SDS011;4151;51.110;7.020;2022-08-21T15:51:28;2.20;;;1.00;;
8219;SDS011;4151;51.110;7.020;2022-08-21T15:53:54;1.77;;;1.20;;
8219;SDS011;4151;51.110;7.020;2022-08-21T15:58:47;3.27;;;1.40;;
8219;SDS011;4151;51.110;7.020;2022-08-21T16:01:17;2.00;;;1.20;;
8219;SDS011;4151;51.110;7.020;2022-08-21T16:03:44;5.17;;;1.30;;
8219;SDS011;4151;51.110;7.020;2022-08-21T16:06:15;5.17;;;1.33;;
8219;SDS011;4151;51.110;7.020;2022-08-21T16:08:40;2.77;;;1.30;;
8219;SDS011;4151;51.110;7.020;2022-08-21T16:11:06;5.17;;;1.27;;
8219;SDS011;4151;51.110;7.020;2022-08-21T16:13:34;3.10;;;1.40;;
8219;SDS011;4151;51.110;7.020;2022-08-21T16:16:03;2.73;;;1.33;;
8219;SDS011;4151;51.110;7.020;2022-08-21T16:18:30;2.33;;;1.37;;
8219;SDS011;4151;51.110;7.020;2022-08-21T16:20:56;2.03;;;1.03;;
8219;SDS011;4151;51.110;7.020;2022-08-21T16:23:22;2.43;;;1.13;;
8219;SDS011;4151;51.110;7.020;2022-08-21T16:25:48;4.37;;;1.40;;
8219;SDS011;4151;51.110;7.020;2022-08-21T16:28:15;2.10;;;1.30;;
8219;SDS011;4151;51.110;7.020;2022-08-21T16:30:43;6.60;;;2.07;;
8219;SDS011;4151;51.110;7.020;2022-08-21T16:33:53;2.57;;;1.40;;
8219;SDS011;4151;51.110;7.020;2022-08-21T16:36:01;3.23;;;1.20;;
8219;SDS011;4151;51.110;7.020;2022-08-21T16:38:28;4.53;;;1.53;;
8219;SDS011;4151;51.110;7.020;2022-08-21T16:40:54;3.23;;;1.50;;